Hatsu Envoy — VSQL9 — position and weather

sailwx.info

Track history (hours):
 
Tides and Currents Weather Stations Pressure Air Temp Water Temp Dewpoint Dewpoint Depression Visibility Wind Speed Wind Dir Waves Ship Positions

Hatsu Envoy

Last reported at 2015-Mar-03 15:33 UTC. Time now 2015-Mar-03 16:33 UTC.
Position N 37°57' E 023°35'.

Type: Ship (hazmat cat D). MMSI: 235414000.

Date/timePositionNaut miles runAvg speedWind from/ knotsBaromVisibWave heightAir tempDewpointWater temp
2015-Mar-03 15:33N 37°57' E 023°35'0 0.0
2015-Mar-03 14:33N 37°57' E 023°35'0 0.0
2015-Mar-03 13:33N 37°57' E 023°35'0 0.0
2015-Mar-03 12:27N 37°57' E 023°35'0 0.0
2015-Mar-03 11:30N 37°57' E 023°35'0 0.0
2015-Mar-03 10:30N 37°57' E 023°35'0 0.1
2015-Mar-03 09:33N 37°57' E 023°35'3 3.3
2015-Mar-03 08:33N 37°54' E 023°36'1 1.0
2015-Mar-03 07:33N 37°53' E 023°35'5 4.9
2015-Mar-03 06:34N 37°50' E 023°39'1413.7
2015-Mar-03 05:33N 37°38' E 023°49'5 5.1
2015-Mar-03 04:33N 37°35' E 023°54'7 7.0
2015-Mar-03 03:34N 37°37' E 023°45'1010.1
2015-Mar-03 02:33N 37°27' E 023°46'  
2015-Feb-23 21:27N 37°22' E 023°42'1516.3
2015-Feb-23 20:33N 37°37' E 023°41'1615.7
2015-Feb-23 19:33N 37°52' E 023°36'6 5.5
2015-Feb-23 18:33N 37°57' E 023°35'0 0.0
2015-Feb-23 17:33N 37°57' E 023°35'0 0.0
2015-Feb-23 16:30N 37°57' E 023°35'0 0.0
2015-Feb-23 15:33N 37°57' E 023°35'0 0.0
2015-Feb-23 14:30N 37°57' E 023°35'0 0.0
2015-Feb-23 13:30N 37°57' E 023°35'0 0.0
2015-Feb-23 12:24N 37°57' E 023°35'0 0.0
2015-Feb-23 11:30N 37°57' E 023°35'0 0.0
2015-Feb-23 10:33N 37°57' E 023°35'0 0.0
2015-Feb-23 09:30N 37°57' E 023°35'0 0.0
2015-Feb-23 08:30N 37°57' E 023°35'0 0.0
2015-Feb-23 07:30N 37°57' E 023°35'0 0.0
2015-Feb-23 06:33N 37°57' E 023°35'0 0.1
2015-Feb-23 05:33N 37°57' E 023°35'3 3.2
2015-Feb-23 04:33N 37°54' E 023°35'4 3.7
2015-Feb-23 03:33N 37°51' E 023°38'9 9.3
2015-Feb-23 02:34N 37°43' E 023°44'1716.8
2015-Feb-23 01:33N 37°27' E 023°47'  
Track history (hours):
 
Tides and Currents Weather Stations Pressure Air Temp Water Temp Dewpoint Dewpoint Depression Visibility Wind Speed Wind Dir Waves Ship Positions

Hatsu Envoy

Last reported at 2015-Mar-03 15:33 UTC. Time now 2015-Mar-03 16:33 UTC.
Position N 37°57' E 023°35'.

Type: Ship (hazmat cat D). MMSI: 235414000.

Date/timePositionNaut miles runAvg speedWind from/ knotsBaromVisibWave heightAir tempDewpointWater temp
2015-Mar-03 15:33N 37°57' E 023°35'0 0.0
2015-Mar-03 14:33N 37°57' E 023°35'0 0.0
2015-Mar-03 13:33N 37°57' E 023°35'0 0.0
2015-Mar-03 12:27N 37°57' E 023°35'0 0.0
2015-Mar-03 11:30N 37°57' E 023°35'0 0.0
2015-Mar-03 10:30N 37°57' E 023°35'0 0.1
2015-Mar-03 09:33N 37°57' E 023°35'3 3.3
2015-Mar-03 08:33N 37°54' E 023°36'1 1.0
2015-Mar-03 07:33N 37°53' E 023°35'5 4.9
2015-Mar-03 06:34N 37°50' E 023°39'1413.7
2015-Mar-03 05:33N 37°38' E 023°49'5 5.1
2015-Mar-03 04:33N 37°35' E 023°54'7 7.0
2015-Mar-03 03:34N 37°37' E 023°45'1010.1
2015-Mar-03 02:33N 37°27' E 023°46'  
2015-Feb-23 21:27N 37°22' E 023°42'1516.3
2015-Feb-23 20:33N 37°37' E 023°41'1615.7
2015-Feb-23 19:33N 37°52' E 023°36'6 5.5
2015-Feb-23 18:33N 37°57' E 023°35'0 0.0
2015-Feb-23 17:33N 37°57' E 023°35'0 0.0
2015-Feb-23 16:30N 37°57' E 023°35'0 0.0
2015-Feb-23 15:33N 37°57' E 023°35'0 0.0
2015-Feb-23 14:30N 37°57' E 023°35'0 0.0
2015-Feb-23 13:30N 37°57' E 023°35'0 0.0
2015-Feb-23 12:24N 37°57' E 023°35'0 0.0
2015-Feb-23 11:30N 37°57' E 023°35'0 0.0
2015-Feb-23 10:33N 37°57' E 023°35'0 0.0
2015-Feb-23 09:30N 37°57' E 023°35'0 0.0
2015-Feb-23 08:30N 37°57' E 023°35'0 0.0
2015-Feb-23 07:30N 37°57' E 023°35'0 0.0
2015-Feb-23 06:33N 37°57' E 023°35'0 0.1
2015-Feb-23 05:33N 37°57' E 023°35'3 3.2
2015-Feb-23 04:33N 37°54' E 023°35'4 3.7
2015-Feb-23 03:33N 37°51' E 023°38'9 9.3
2015-Feb-23 02:34N 37°43' E 023°44'1716.8
2015-Feb-23 01:33N 37°27' E 023°47'  

Dump ship's entire track history